createdAt,value
2019-01-15T00:01:21.686Z,1.9
2019-01-15T00:06:27.849Z,1.7
2019-01-15T00:11:32.813Z,1.7
2019-01-15T00:16:38.360Z,1.8
2019-01-15T00:21:44.032Z,1.8
2019-01-15T00:26:50.132Z,1.8
2019-01-15T00:31:56.211Z,1.5
2019-01-15T00:37:01.784Z,1.7
2019-01-15T00:42:07.374Z,1.6
2019-01-15T00:47:09.679Z,1.7
2019-01-15T00:52:14.564Z,1.6
2019-01-15T00:57:19.705Z,1.6
2019-01-15T01:02:24.674Z,1.5
2019-01-15T01:07:30.373Z,1.6
2019-01-15T01:12:35.313Z,1.4
2019-01-15T01:17:41.321Z,1.3
2019-01-15T01:22:46.244Z,1.5
2019-01-15T01:27:51.370Z,1.5
2019-01-15T01:32:56.543Z,1.3
2019-01-15T01:38:02.452Z,1.4
2019-01-15T01:43:07.480Z,1.3
2019-01-15T01:48:13.367Z,1.4
2019-01-15T01:53:18.268Z,1.3
2019-01-15T01:58:23.548Z,1.3
2019-01-15T02:03:29.536Z,1.6
2019-01-15T02:08:35.830Z,1.2
2019-01-15T02:13:41.826Z,1.3
2019-01-15T02:18:49.002Z,1.3
2019-01-15T02:23:54.766Z,1.4
2019-01-15T02:29:00.400Z,1.2
2019-01-15T02:34:05.474Z,1.3
2019-01-15T02:39:11.104Z,1.3
2019-01-15T02:44:16.752Z,1.2
2019-01-15T02:49:22.708Z,1.5
2019-01-15T02:54:27.630Z,1.4
2019-01-15T02:59:32.523Z,1.2
2019-01-15T03:04:38.148Z,1.3
2019-01-15T03:09:43.472Z,1.3
2019-01-15T03:14:48.460Z,1
2019-01-15T03:19:53.651Z,1.1
2019-01-15T03:24:58.825Z,1.1
2019-01-15T03:30:04.163Z,1
2019-01-15T03:35:09.803Z,1.2
2019-01-15T03:40:15.525Z,0.9
2019-01-15T03:45:20.441Z,1
2019-01-15T03:50:25.891Z,0.9
2019-01-15T03:55:30.132Z,0.9
2019-01-15T04:00:35.257Z,0.8
2019-01-15T04:05:40.248Z,0.9
2019-01-15T04:10:46.181Z,1.1
2019-01-15T04:15:51.339Z,0.9
2019-01-15T04:20:57.465Z,0.8
2019-01-15T04:26:02.770Z,0.8
2019-01-15T04:31:08.558Z,1.1
2019-01-15T04:36:13.883Z,0.8
2019-01-15T04:41:19.870Z,0.9
2019-01-15T04:46:28.190Z,0.7
2019-01-15T04:51:33.904Z,0.8
2019-01-15T04:56:38.908Z,0.8
2019-01-15T05:01:44.648Z,0.8
2019-01-15T05:06:49.747Z,0.8
2019-01-15T05:11:55.587Z,0.8
2019-01-15T05:17:00.696Z,0.8
2019-01-15T05:22:05.099Z,0.8
2019-01-15T05:27:10.791Z,1
2019-01-15T05:32:16.293Z,0.9
2019-01-15T05:37:21.599Z,0.8
2019-01-15T05:42:27.766Z,0.8
2019-01-15T05:47:33.594Z,0.8
2019-01-15T05:52:39.216Z,0.8
2019-01-15T05:57:44.310Z,0.8
2019-01-15T06:02:50.923Z,1.2
2019-01-15T06:07:56.730Z,1
2019-01-15T06:13:03.184Z,1
2019-01-15T06:18:09.002Z,1
2019-01-15T06:23:15.590Z,1.1
2019-01-15T06:28:21.868Z,1.2
2019-01-15T06:33:27.568Z,1.2
2019-01-15T06:38:33.529Z,1.1
2019-01-15T06:43:39.194Z,1.1
2019-01-15T06:48:44.792Z,1.2
2019-01-15T06:53:51.341Z,1
2019-01-15T06:58:56.989Z,1.3
2019-01-15T07:04:07.098Z,1.3
2019-01-15T07:09:13.065Z,1.4
2019-01-15T07:14:19.684Z,1.6
2019-01-15T07:19:25.333Z,1.4
2019-01-15T07:24:31.071Z,1.3
2019-01-15T07:29:36.009Z,1.4
2019-01-15T07:34:41.403Z,1.5
2019-01-15T07:39:47.226Z,1.4
2019-01-15T07:44:53.205Z,1.6
2019-01-15T07:49:58.428Z,1.4
2019-01-15T07:55:04.494Z,1.7
2019-01-15T08:00:11.400Z,1.7
2019-01-15T08:05:16.827Z,2
2019-01-15T08:10:21.790Z,1.7
2019-01-15T08:15:26.438Z,1.8
2019-01-15T08:20:31.958Z,1.4
2019-01-15T08:25:37.781Z,1.6
2019-01-15T08:30:43.035Z,1.7
2019-01-15T08:35:48.196Z,1.6
2019-01-15T08:40:54.048Z,1.9
2019-01-15T08:46:00.160Z,1.9
2019-01-15T08:51:06.031Z,1.8
2019-01-15T08:56:10.299Z,1.9
2019-01-15T09:01:16.244Z,1.8
2019-01-15T09:06:21.516Z,2.1
2019-01-15T09:11:26.653Z,1.7
2019-01-15T09:16:32.409Z,1.7
2019-01-15T09:21:37.483Z,2.1
2019-01-15T09:26:43.439Z,1.9
2019-01-15T09:31:48.414Z,2.5
2019-01-15T09:36:53.779Z,2.8
2019-01-15T09:41:59.376Z,2.2
2019-01-15T09:47:04.912Z,2
2019-01-15T09:52:20.931Z,2
2019-01-15T09:57:13.384Z,2.4
2019-01-15T10:02:19.041Z,2.2
2019-01-15T10:07:23.265Z,2
2019-01-15T10:12:28.274Z,1.7
2019-01-15T10:17:34.359Z,2
2019-01-15T10:22:40.104Z,2.1
2019-01-15T10:27:45.242Z,2.3
2019-01-15T10:32:50.417Z,2.6
2019-01-15T10:37:56.309Z,2.6
2019-01-15T10:43:01.389Z,2.3
2019-01-15T10:48:07.124Z,2.7
2019-01-15T10:53:12.310Z,2.3
2019-01-15T10:58:18.741Z,2.2
2019-01-15T11:03:24.420Z,2.1
2019-01-15T11:08:30.292Z,2
2019-01-15T11:13:33.919Z,2
2019-01-15T11:18:40.395Z,1.7
2019-01-15T11:23:45.483Z,2.7
2019-01-15T11:28:51.124Z,3
2019-01-15T11:33:56.790Z,3.1
2019-01-15T11:39:02.804Z,3.1
2019-01-15T11:44:06.968Z,2.2
2019-01-15T11:49:13.056Z,2.5
2019-01-15T11:54:18.238Z,2.1
2019-01-15T11:59:23.911Z,2.2
2019-01-15T12:04:29.259Z,2
2019-01-15T12:09:35.242Z,2
2019-01-15T12:14:40.701Z,1.9
2019-01-15T12:19:46.281Z,2
2019-01-15T12:24:51.642Z,1.9
2019-01-15T12:29:57.393Z,1.8
2019-01-15T12:35:03.053Z,1.7
2019-01-15T12:45:19.174Z,1.8
2019-01-15T12:50:24.478Z,1.7
2019-01-15T12:55:28.738Z,1.8
2019-01-15T13:00:34.559Z,1.8
2019-01-15T13:05:38.535Z,1.7
2019-01-15T13:10:44.716Z,1.7
2019-01-15T13:15:52.392Z,1.5
2019-01-15T13:20:58.143Z,1.6
2019-01-15T13:26:03.108Z,1.7
2019-01-15T13:31:11.018Z,1.6
2019-01-15T13:36:16.627Z,1.5
2019-01-15T13:41:22.364Z,1.9
2019-01-15T13:46:28.144Z,1.5
2019-01-15T13:51:33.939Z,1.4
2019-01-15T13:56:39.546Z,1.8
2019-01-15T14:01:44.635Z,1.7
2019-01-15T14:06:49.564Z,1.6
2019-01-15T14:11:54.687Z,1.6
2019-01-15T14:16:59.841Z,1.8
2019-01-15T14:22:05.904Z,2
2019-01-15T14:27:11.112Z,1.6
2019-01-15T14:32:16.302Z,1.4
2019-01-15T14:37:21.633Z,1.6
2019-01-15T14:42:26.715Z,1.6
2019-01-15T14:47:32.312Z,1.5
2019-01-15T14:52:37.616Z,1.7
2019-01-15T14:57:42.575Z,1.5
2019-01-15T15:02:48.105Z,1.5
2019-01-15T15:07:53.363Z,2.5
2019-01-15T15:12:58.458Z,4.2
2019-01-15T15:18:03.422Z,4.1
2019-01-15T15:23:08.817Z,4.8
2019-01-15T15:28:14.663Z,4.5
2019-01-15T15:33:20.564Z,4.4
2019-01-15T15:38:25.687Z,4.9
2019-01-15T15:43:31.760Z,4.7
2019-01-15T15:48:37.400Z,4
2019-01-15T15:53:42.717Z,4.5
2019-01-15T15:58:48.536Z,4.1
2019-01-15T16:03:53.656Z,3.9
2019-01-15T16:08:59.396Z,4.5
2019-01-15T16:14:03.528Z,4
2019-01-15T16:19:08.743Z,3.8
2019-01-15T16:24:14.242Z,3.7
2019-01-15T16:29:18.077Z,3.8
2019-01-15T16:34:23.572Z,3.7
2019-01-15T16:39:28.673Z,3.6
2019-01-15T16:44:34.775Z,3.8
2019-01-15T16:49:39.131Z,3.9
2019-01-15T16:54:44.205Z,3.4
2019-01-15T16:59:49.792Z,3.8
2019-01-15T17:04:54.903Z,3.7
2019-01-15T17:09:59.992Z,3.2
2019-01-15T17:15:05.269Z,3.5
2019-01-15T17:20:06.163Z,3.4
2019-01-15T17:25:12.729Z,3.4
2019-01-15T17:30:18.185Z,4.1
2019-01-15T17:35:19.029Z,18.9
2019-01-15T17:40:22.753Z,15.1
2019-01-15T17:45:28.995Z,12.5
2019-01-15T17:50:38.942Z,11
2019-01-15T17:55:44.295Z,10.9
2019-01-15T18:00:49.423Z,10.7
2019-01-15T18:05:54.689Z,10.8
2019-01-15T18:11:00.669Z,9.7
2019-01-15T18:16:06.056Z,10.1
2019-01-15T18:21:11.096Z,9.8
2019-01-15T18:26:16.602Z,10.7
2019-01-15T18:31:21.723Z,10.4
2019-01-15T18:36:26.901Z,4.3
2019-01-15T18:41:32.747Z,3.6
2019-01-15T18:46:38.021Z,3.5
2019-01-15T18:51:43.787Z,2.8
2019-01-15T18:56:49.569Z,2.7
2019-01-15T19:01:54.851Z,2.7
2019-01-15T19:07:00.252Z,2.6
2019-01-15T19:12:06.176Z,2.8
2019-01-15T19:17:12.150Z,2.8
2019-01-15T19:22:17.621Z,3.2
2019-01-15T19:27:23.204Z,2.6
2019-01-15T19:32:28.325Z,3
2019-01-15T19:37:34.296Z,3.1
2019-01-15T19:42:39.964Z,2.8
2019-01-15T19:47:45.656Z,3.7
2019-01-15T19:52:51.272Z,3
2019-01-15T19:57:58.221Z,3.3
2019-01-15T20:03:04.618Z,3.1
2019-01-15T20:08:09.765Z,3.1
2019-01-15T20:13:15.417Z,2.9
2019-01-15T20:18:23.371Z,2.9
2019-01-15T20:23:29.021Z,2.6
2019-01-15T20:28:35.304Z,2.7
2019-01-15T20:33:42.845Z,2.6
2019-01-15T20:38:48.485Z,3
2019-01-15T20:43:52.845Z,3.3
2019-01-15T20:48:58.287Z,2.8
2019-01-15T20:54:03.768Z,2.8
2019-01-15T20:59:09.238Z,3.3
2019-01-15T21:04:14.381Z,3.1
2019-01-15T21:09:20.170Z,2.9
2019-01-15T21:14:26.004Z,3
2019-01-15T21:19:32.280Z,3
2019-01-15T21:24:37.647Z,3.4
2019-01-15T21:29:43.525Z,3.1
2019-01-15T21:34:47.462Z,3.3
2019-01-15T21:39:53.655Z,3.1
2019-01-15T21:44:58.902Z,3.2
2019-01-15T21:50:04.712Z,2.8
2019-01-15T21:55:10.851Z,3
2019-01-15T22:00:16.757Z,2.8
2019-01-15T22:05:21.611Z,2.8
2019-01-15T22:10:26.926Z,2.6
2019-01-15T22:15:31.814Z,2.5
2019-01-15T22:20:36.947Z,2.7
2019-01-15T22:25:42.607Z,2.4
2019-01-15T22:30:48.586Z,2.3
2019-01-15T22:35:53.957Z,2
2019-01-15T22:41:00.554Z,2.3
2019-01-15T22:46:05.904Z,2.1
2019-01-15T22:51:11.501Z,2.1
2019-01-15T22:56:17.242Z,2.2
2019-01-15T23:01:23.208Z,2
2019-01-15T23:06:28.941Z,2.1
2019-01-15T23:11:34.049Z,2
2019-01-15T23:16:39.917Z,1.9
2019-01-15T23:21:45.893Z,2
2019-01-15T23:26:51.743Z,2
2019-01-15T23:31:56.373Z,1.6
2019-01-15T23:37:01.339Z,1.8
2019-01-15T23:42:06.563Z,1.7
2019-01-15T23:47:11.977Z,1.9
2019-01-15T23:52:18.371Z,1.6
2019-01-15T23:57:23.859Z,1.5
